createdAt,value
2018-04-08T00:00:39.977Z,14.86
2018-04-08T00:01:39.996Z,14.94
2018-04-08T00:02:40.019Z,14.96
2018-04-08T00:03:40.040Z,14.89
2018-04-08T00:04:40.061Z,14.84
2018-04-08T00:05:40.084Z,14.81
2018-04-08T00:06:40.104Z,14.73
2018-04-08T00:07:40.128Z,14.77
2018-04-08T00:08:40.147Z,14.55
2018-04-08T00:09:40.169Z,14.60
2018-04-08T00:10:40.198Z,14.60
2018-04-08T00:11:40.217Z,14.44
2018-04-08T00:12:40.234Z,14.40
2018-04-08T00:13:40.256Z,14.33
2018-04-08T00:14:40.281Z,14.14
2018-04-08T00:15:40.299Z,14.15
2018-04-08T00:16:40.328Z,14.18
2018-04-08T00:17:40.342Z,14.08
2018-04-08T00:18:40.365Z,14.07
2018-04-08T00:19:40.386Z,14.04
2018-04-08T00:20:40.406Z,14.04
2018-04-08T00:21:40.428Z,13.99
2018-04-08T00:22:40.451Z,14.08
2018-04-08T00:23:40.472Z,14.15
2018-04-08T00:24:40.493Z,14.23
2018-04-08T00:25:40.515Z,14.18
2018-04-08T00:26:40.537Z,14.18
2018-04-08T00:27:40.558Z,14.12
2018-04-08T00:28:40.580Z,14.11
2018-04-08T00:29:40.601Z,14.15
2018-04-08T00:30:40.622Z,14.05
2018-04-08T00:31:40.645Z,13.99
2018-04-08T00:32:40.717Z,13.86
2018-04-08T00:33:40.686Z,13.97
2018-04-08T00:34:40.708Z,13.87
2018-04-08T00:35:40.729Z,13.79
2018-04-08T00:36:40.750Z,13.68
2018-04-08T00:37:40.771Z,13.63
2018-04-08T00:38:40.803Z,13.67
2018-04-08T00:39:40.815Z,13.60
2018-04-08T00:40:40.836Z,13.60
2018-04-08T00:41:40.858Z,13.62
2018-04-08T00:42:40.879Z,13.63
2018-04-08T00:43:40.901Z,13.63
2018-04-08T00:44:40.922Z,13.62
2018-04-08T00:45:40.943Z,13.59
2018-04-08T00:46:40.964Z,13.56
2018-04-08T00:47:40.987Z,13.56
2018-04-08T00:48:41.008Z,13.49
2018-04-08T00:49:41.029Z,13.49
2018-04-08T00:50:41.051Z,13.44
2018-04-08T00:51:41.121Z,13.49
2018-04-08T00:52:41.093Z,13.50
2018-04-08T00:53:41.114Z,13.53
2018-04-08T00:54:41.137Z,13.50
2018-04-08T00:55:41.158Z,13.57
2018-04-08T00:56:41.228Z,13.59
2018-04-08T00:57:41.200Z,13.52
2018-04-08T00:58:41.221Z,13.50
2018-04-08T00:59:41.243Z,13.46
2018-04-08T01:00:41.263Z,13.42
2018-04-08T01:01:41.335Z,13.41
2018-04-08T01:02:41.306Z,13.37
2018-04-08T01:03:41.328Z,13.37
2018-04-08T01:04:41.348Z,13.39
2018-04-08T01:05:41.368Z,13.28
2018-04-08T01:06:41.441Z,13.27
2018-04-08T01:07:41.413Z,13.30
2018-04-08T01:08:41.432Z,13.27
2018-04-08T01:09:41.454Z,13.25
2018-04-08T01:10:41.478Z,13.15
2018-04-08T01:11:41.497Z,13.12
2018-04-08T01:12:41.567Z,13.12
2018-04-08T01:13:41.539Z,13.11
2018-04-08T01:14:41.560Z,13.08
2018-04-08T01:15:41.583Z,13.15
2018-04-08T01:16:41.604Z,13.28
2018-04-08T01:17:41.625Z,13.25
2018-04-08T01:18:41.795Z,13.19
2018-04-08T01:19:41.668Z,13.22
2018-04-08T01:20:41.687Z,13.18
2018-04-08T01:21:41.708Z,13.11
2018-04-08T01:22:41.730Z,13.13
2018-04-08T01:23:41.751Z,13.18
2018-04-08T01:24:41.772Z,13.25
2018-04-08T01:25:41.793Z,13.39
2018-04-08T01:26:41.815Z,13.38
2018-04-08T01:27:41.839Z,13.38
2018-04-08T01:28:41.855Z,13.35
2018-04-08T01:29:41.876Z,13.35
2018-04-08T01:30:41.899Z,13.41
2018-04-08T01:31:41.919Z,13.30
2018-04-08T01:32:41.940Z,13.16
2018-04-08T01:33:41.962Z,13.22
2018-04-08T01:34:42.032Z,13.12
2018-04-08T01:35:42.004Z,13.08
2018-04-08T01:36:42.025Z,13.11
2018-04-08T01:37:42.045Z,13.05
2018-04-08T01:38:42.067Z,13.08
2018-04-08T01:39:42.087Z,13.05
2018-04-08T01:40:42.111Z,12.97
2018-04-08T01:41:42.128Z,12.94
2018-04-08T01:42:42.150Z,12.98
2018-04-08T01:43:42.175Z,13.15
2018-04-08T01:44:42.191Z,12.98
2018-04-08T01:45:42.213Z,13.15
2018-04-08T01:46:42.233Z,13.16
2018-04-08T01:47:42.255Z,13.15
2018-04-08T01:48:42.275Z,13.22
2018-04-08T01:49:42.296Z,13.20
2018-04-08T01:50:42.318Z,13.31
2018-04-08T01:51:42.344Z,13.25
2018-04-08T01:52:42.358Z,13.22
2018-04-08T01:53:42.384Z,13.23
2018-04-08T01:54:42.401Z,13.31
2018-04-08T01:55:42.475Z,13.12
2018-04-08T01:56:42.441Z,13.18
2018-04-08T01:57:42.462Z,13.16
2018-04-08T01:58:42.489Z,13.00
2018-04-08T01:59:42.506Z,13.12
2018-04-08T02:00:42.524Z,13.11
2018-04-08T02:01:42.595Z,13.08
2018-04-08T02:02:42.567Z,12.94
2018-04-08T02:03:42.588Z,12.98
2018-04-08T02:04:42.607Z,13.04
2018-04-08T02:05:42.629Z,12.94
2018-04-08T02:06:42.649Z,13.00
2018-04-08T02:07:42.671Z,12.94
2018-04-08T02:08:42.688Z,12.93
2018-04-08T02:09:42.712Z,12.87
2018-04-08T02:10:42.732Z,12.83
2018-04-08T02:11:42.753Z,12.85
2018-04-08T02:12:42.773Z,12.82
2018-04-08T02:13:42.793Z,12.73
2018-04-08T02:14:42.815Z,12.58
2018-04-08T02:15:42.834Z,12.62
2018-04-08T02:16:42.856Z,12.50
2018-04-08T02:17:42.877Z,12.54
2018-04-08T02:18:42.897Z,12.36
2018-04-08T02:19:42.918Z,12.43
2018-04-08T02:20:42.937Z,12.42
2018-04-08T02:21:42.957Z,12.39
2018-04-08T02:22:42.979Z,12.39
2018-04-08T02:23:43.000Z,12.45
2018-04-08T02:24:43.019Z,12.42
2018-04-08T02:25:43.041Z,12.39
2018-04-08T02:26:43.061Z,12.42
2018-04-08T02:27:43.081Z,12.37
2018-04-08T02:28:43.102Z,12.37
2018-04-08T02:29:43.122Z,12.29
2018-04-08T02:30:43.144Z,12.39
2018-04-08T02:31:43.166Z,12.27
2018-04-08T02:32:43.183Z,12.36
2018-04-08T02:33:43.205Z,12.35
2018-04-08T02:34:43.226Z,12.31
2018-04-08T02:35:43.247Z,12.35
2018-04-08T02:36:43.266Z,12.40
2018-04-08T02:37:43.287Z,12.36
2018-04-08T02:38:43.307Z,12.39
2018-04-08T02:39:43.328Z,12.25
2018-04-08T02:40:43.349Z,12.28
2018-04-08T02:41:43.370Z,12.29
2018-04-08T02:42:43.390Z,12.28
2018-04-08T02:43:43.410Z,12.22
2018-04-08T02:44:43.430Z,12.22
2018-04-08T02:45:43.451Z,12.21
2018-04-08T02:46:43.472Z,12.25
2018-04-08T02:47:43.496Z,12.21
2018-04-08T02:48:43.512Z,12.25
2018-04-08T02:49:43.534Z,12.28
2018-04-08T02:50:43.554Z,12.22
2018-04-08T02:51:43.573Z,12.27
2018-04-08T02:52:43.595Z,12.24
2018-04-08T02:53:43.615Z,12.28
2018-04-08T02:54:43.636Z,12.25
2018-04-08T02:55:43.655Z,12.22
2018-04-08T02:56:43.675Z,12.28
2018-04-08T02:57:43.699Z,12.22
2018-04-08T02:58:43.717Z,12.24
2018-04-08T02:59:43.737Z,12.20
2018-04-08T03:00:43.756Z,12.09
2018-04-08T03:01:43.777Z,12.13
2018-04-08T03:02:43.799Z,12.09
2018-04-08T03:03:43.821Z,12.10
2018-04-08T03:04:43.842Z,12.12
2018-04-08T03:05:43.860Z,12.13
2018-04-08T03:06:43.879Z,12.17
2018-04-08T03:07:43.900Z,12.20
2018-04-08T03:08:43.920Z,12.37
2018-04-08T03:09:43.942Z,12.42
2018-04-08T03:10:44.212Z,12.40
2018-04-08T03:11:43.982Z,12.36
2018-04-08T03:12:44.001Z,12.28
2018-04-08T03:13:44.021Z,12.25
2018-04-08T03:14:44.042Z,12.22
2018-04-08T03:15:44.063Z,12.22
2018-04-08T03:16:44.082Z,12.15
2018-04-08T03:17:44.102Z,12.13
2018-04-08T03:18:44.127Z,12.10
2018-04-08T03:19:44.143Z,12.07
2018-04-08T03:20:44.161Z,12.04
2018-04-08T03:21:44.183Z,12.12
2018-04-08T03:22:44.204Z,12.09
2018-04-08T03:23:44.224Z,12.00
2018-04-08T03:24:44.243Z,12.00
2018-04-08T03:25:44.263Z,11.97
2018-04-08T03:26:44.284Z,12.02
2018-04-08T03:27:44.305Z,12.10
2018-04-08T03:28:44.325Z,12.13
2018-04-08T03:29:44.345Z,12.10
2018-04-08T03:30:44.370Z,12.13
2018-04-08T03:31:44.386Z,12.12
2018-04-08T03:32:44.404Z,12.13
2018-04-08T03:33:44.424Z,12.10
2018-04-08T03:34:44.445Z,12.15
2018-04-08T03:35:44.465Z,12.12
2018-04-08T03:36:44.486Z,12.15
2018-04-08T03:37:44.505Z,12.09
2018-04-08T03:38:44.525Z,12.21
2018-04-08T03:39:44.546Z,12.10
2018-04-08T03:40:44.565Z,12.10
2018-04-08T03:41:44.585Z,12.07
2018-04-08T03:42:44.608Z,12.03
2018-04-08T03:43:44.626Z,12.12
2018-04-08T03:44:44.646Z,12.09
2018-04-08T03:45:44.668Z,12.04
2018-04-08T03:46:44.687Z,12.03
2018-04-08T03:47:44.707Z,12.13
2018-04-08T03:48:44.726Z,12.07
2018-04-08T03:49:44.748Z,12.09
2018-04-08T03:50:44.768Z,12.13
2018-04-08T03:51:44.788Z,12.06
2018-04-08T03:52:44.807Z,12.09
2018-04-08T03:53:44.828Z,12.17
2018-04-08T03:54:44.850Z,12.07
2018-04-08T03:55:44.868Z,12.18
2018-04-08T03:56:44.888Z,12.07
2018-04-08T03:57:44.908Z,12.06
2018-04-08T03:58:44.980Z,11.91
2018-04-08T03:59:44.950Z,12.03
2018-04-08T04:00:44.969Z,12.02
2018-04-08T04:01:44.989Z,11.97
2018-04-08T04:02:45.011Z,12.12
2018-04-08T04:03:45.031Z,12.02
2018-04-08T04:04:45.050Z,12.02
2018-04-08T04:05:45.070Z,12.12
2018-04-08T04:06:45.089Z,12.13
2018-04-08T04:07:45.113Z,11.91
2018-04-08T04:08:45.131Z,11.94
2018-04-08T04:09:45.193Z,11.99
2018-04-08T04:10:45.170Z,11.94
2018-04-08T04:11:45.191Z,12.04
2018-04-08T04:12:45.211Z,12.03
2018-04-08T04:13:45.230Z,12.09
2018-04-08T04:14:45.251Z,12.07
2018-04-08T04:15:45.274Z,12.07
2018-04-08T04:16:45.290Z,12.10
2018-04-08T04:17:45.311Z,12.15
2018-04-08T04:18:45.332Z,12.09
2018-04-08T04:19:45.352Z,12.06
2018-04-08T04:20:45.371Z,12.02
2018-04-08T04:21:45.398Z,12.06
2018-04-08T04:22:45.412Z,12.06
2018-04-08T04:23:45.432Z,12.02
2018-04-08T04:24:45.556Z,11.99
2018-04-08T04:25:45.472Z,12.00
2018-04-08T04:26:45.491Z,11.94
2018-04-08T04:27:45.511Z,11.97
2018-04-08T04:28:45.532Z,11.81
2018-04-08T04:29:45.555Z,11.84
2018-04-08T04:30:45.572Z,11.81
2018-04-08T04:31:45.592Z,11.75
2018-04-08T04:32:45.611Z,11.65
2018-04-08T04:33:45.631Z,11.69
2018-04-08T04:34:45.652Z,11.68
2018-04-08T04:35:45.672Z,11.63
2018-04-08T04:36:45.691Z,11.69
2018-04-08T04:37:45.775Z,11.77
2018-04-08T04:38:45.731Z,11.73
2018-04-08T04:39:45.751Z,11.78
2018-04-08T04:40:45.770Z,11.83
2018-04-08T04:41:45.793Z,11.78
2018-04-08T04:42:45.810Z,11.75
2018-04-08T04:43:45.831Z,11.80
2018-04-08T04:44:45.850Z,11.75
2018-04-08T04:45:45.870Z,11.70
2018-04-08T04:46:45.890Z,11.80
2018-04-08T04:47:45.910Z,11.78
2018-04-08T04:48:45.933Z,11.78
2018-04-08T04:49:45.950Z,11.86
2018-04-08T04:50:45.969Z,11.88
2018-04-08T04:51:45.989Z,11.81
2018-04-08T04:52:46.011Z,11.80
2018-04-08T04:53:46.029Z,11.86
2018-04-08T04:54:46.049Z,11.80
2018-04-08T04:55:46.070Z,11.78
2018-04-08T04:56:46.089Z,11.84
2018-04-08T04:57:46.113Z,11.95
2018-04-08T04:58:46.136Z,11.99
2018-04-08T04:59:46.149Z,11.97
2018-04-08T05:00:46.168Z,11.88
2018-04-08T05:01:46.189Z,11.97
2018-04-08T05:02:46.209Z,12.02
2018-04-08T05:03:46.279Z,12.00
2018-04-08T05:04:46.248Z,12.04
2018-04-08T05:05:46.269Z,12.07
2018-04-08T05:06:46.288Z,12.06
2018-04-08T05:07:46.308Z,12.10
2018-04-08T05:08:46.327Z,12.15
2018-04-08T05:09:46.348Z,12.03
2018-04-08T05:10:46.368Z,12.09
2018-04-08T05:11:46.388Z,12.13
2018-04-08T05:12:46.408Z,12.15
2018-04-08T05:13:46.429Z,12.02
2018-04-08T05:14:46.447Z,12.10
2018-04-08T05:15:46.468Z,12.06
2018-04-08T05:16:46.488Z,12.06
2018-04-08T05:17:46.508Z,12.10
2018-04-08T05:18:46.527Z,12.13
2018-04-08T05:19:46.546Z,12.15
2018-04-08T05:20:46.568Z,12.09
2018-04-08T05:21:46.588Z,12.15
2018-04-08T05:22:46.607Z,12.07
2018-04-08T05:23:46.628Z,12.07
2018-04-08T05:24:46.646Z,12.09
2018-04-08T05:25:46.666Z,12.12
2018-04-08T05:26:46.686Z,12.15
2018-04-08T05:27:46.709Z,12.27
2018-04-08T05:28:46.726Z,12.29
2018-04-08T05:29:46.746Z,12.37
2018-04-08T05:30:46.766Z,12.35
2018-04-08T05:31:46.788Z,12.39
2018-04-08T05:32:46.808Z,12.39
2018-04-08T05:33:46.827Z,12.40
2018-04-08T05:34:46.847Z,12.37
2018-04-08T05:35:46.867Z,12.54
2018-04-08T05:36:46.886Z,12.49
2018-04-08T05:37:46.907Z,12.55
2018-04-08T05:38:46.930Z,12.60
2018-04-08T05:39:46.948Z,12.61
2018-04-08T05:40:46.969Z,12.64
2018-04-08T05:41:46.987Z,12.75
2018-04-08T05:42:47.008Z,12.78
2018-04-08T05:43:47.028Z,12.82
2018-04-08T05:44:47.049Z,12.79
2018-04-08T05:45:47.068Z,12.78
2018-04-08T05:46:47.089Z,12.64
2018-04-08T05:47:47.111Z,12.65
2018-04-08T05:48:47.131Z,12.79
2018-04-08T05:49:47.150Z,12.78
2018-04-08T05:50:47.171Z,12.83
2018-04-08T05:51:47.191Z,12.91
2018-04-08T05:52:47.211Z,12.87
2018-04-08T05:53:47.232Z,12.98
2018-04-08T05:54:47.254Z,13.04
2018-04-08T05:55:47.272Z,12.98
2018-04-08T05:56:47.291Z,13.18
2018-04-08T05:57:47.314Z,13.11
2018-04-08T05:58:47.335Z,13.15
2018-04-08T05:59:47.355Z,13.09
2018-04-08T06:00:47.376Z,13.18
2018-04-08T06:01:47.396Z,13.20
2018-04-08T06:02:47.417Z,13.20
2018-04-08T06:03:47.443Z,13.31
2018-04-08T06:04:47.457Z,13.23
2018-04-08T06:05:47.479Z,13.25
2018-04-08T06:06:47.500Z,13.38
2018-04-08T06:07:47.520Z,13.25
2018-04-08T06:08:47.539Z,13.25
2018-04-08T06:09:47.567Z,13.35
2018-04-08T06:10:47.582Z,13.22
2018-04-08T06:11:47.603Z,13.18
2018-04-08T06:12:47.661Z,13.15
2018-04-08T06:13:47.644Z,13.15
2018-04-08T06:14:47.666Z,13.16
2018-04-08T06:15:47.685Z,13.25
2018-04-08T06:16:47.707Z,13.23
2018-04-08T06:17:47.730Z,13.23
2018-04-08T06:18:47.748Z,13.35
2018-04-08T06:19:47.773Z,13.35
2018-04-08T06:20:47.789Z,13.33
2018-04-08T06:21:47.810Z,13.35
2018-04-08T06:22:47.832Z,13.39
2018-04-08T06:23:47.851Z,13.44
2018-04-08T06:24:47.876Z,13.46
2018-04-08T06:25:47.894Z,13.49
2018-04-08T06:26:47.915Z,13.38
2018-04-08T06:27:47.938Z,13.33
2018-04-08T06:28:47.955Z,13.18
2018-04-08T06:29:47.978Z,13.27
2018-04-08T06:30:47.998Z,13.31
2018-04-08T06:31:48.018Z,13.25
2018-04-08T06:32:48.046Z,13.23
2018-04-08T06:33:48.063Z,13.39
2018-04-08T06:34:48.083Z,13.35
2018-04-08T06:35:48.102Z,13.37
2018-04-08T06:36:48.123Z,13.37
2018-04-08T06:37:48.144Z,13.47
2018-04-08T06:38:48.165Z,13.46
2018-04-08T06:39:48.186Z,13.52
2018-04-08T06:40:48.206Z,13.46
2018-04-08T06:41:48.228Z,13.52
2018-04-08T06:42:48.249Z,13.56
2018-04-08T06:43:48.269Z,13.63
2018-04-08T06:44:48.291Z,13.59
2018-04-08T06:45:48.313Z,13.62
2018-04-08T06:46:48.334Z,13.62
2018-04-08T06:47:48.353Z,13.63
2018-04-08T06:48:48.373Z,13.60
2018-04-08T06:49:48.394Z,13.57
2018-04-08T06:50:48.416Z,13.59
2018-04-08T06:51:48.436Z,13.60
2018-04-08T06:52:48.458Z,13.53
2018-04-08T06:53:48.477Z,13.68
2018-04-08T06:54:48.500Z,13.68
2018-04-08T06:55:48.520Z,13.77
2018-04-08T06:56:48.541Z,13.87
2018-04-08T06:57:48.562Z,13.75
2018-04-08T06:58:48.583Z,13.78
2018-04-08T06:59:48.604Z,13.87
2018-04-08T07:00:48.626Z,13.93
2018-04-08T07:01:48.648Z,13.97
2018-04-08T07:02:48.667Z,14.03
2018-04-08T07:03:48.688Z,14.20
2018-04-08T07:04:48.709Z,14.12
2018-04-08T07:05:48.731Z,14.18
2018-04-08T07:06:48.752Z,14.12
2018-04-08T07:07:48.773Z,14.26
2018-04-08T07:08:48.793Z,14.26
2018-04-08T07:09:48.815Z,14.36
2018-04-08T07:10:48.836Z,14.36
2018-04-08T07:11:48.858Z,14.51
2018-04-08T07:12:48.879Z,14.53
2018-04-08T07:13:48.900Z,14.62
2018-04-08T07:14:48.922Z,14.69
2018-04-08T07:15:48.943Z,14.72
2018-04-08T07:16:48.964Z,14.79
2018-04-08T07:17:48.986Z,14.86
2018-04-08T07:18:49.013Z,14.91
2018-04-08T07:19:49.029Z,14.91
2018-04-08T07:20:49.051Z,14.99
2018-04-08T07:21:49.072Z,15.06
2018-04-08T07:22:49.095Z,15.04
2018-04-08T07:23:49.117Z,15.03
2018-04-08T07:24:49.172Z,15.15
2018-04-08T07:25:49.161Z,15.10
2018-04-08T07:26:49.182Z,15.25
2018-04-08T07:27:49.204Z,15.27
2018-04-08T07:28:49.224Z,15.22
2018-04-08T07:29:49.247Z,15.27
2018-04-08T07:30:49.271Z,15.31
2018-04-08T07:31:49.292Z,15.31
2018-04-08T07:32:49.313Z,15.36
2018-04-08T07:33:49.336Z,15.47
2018-04-08T07:34:49.359Z,15.54
2018-04-08T07:35:49.380Z,15.51
2018-04-08T07:36:49.402Z,15.55
2018-04-08T07:37:49.425Z,15.62
2018-04-08T07:38:49.496Z,15.54
2018-04-08T07:39:49.469Z,15.65
2018-04-08T07:40:49.492Z,15.67
2018-04-08T07:41:49.512Z,15.67
2018-04-08T07:42:49.537Z,15.75
2018-04-08T07:43:49.559Z,15.68
2018-04-08T07:44:49.581Z,15.86
2018-04-08T07:45:49.603Z,15.91
2018-04-08T07:46:49.626Z,15.92
2018-04-08T07:47:49.652Z,15.90
2018-04-08T07:48:49.671Z,15.86
2018-04-08T07:49:49.694Z,15.98
2018-04-08T07:50:49.717Z,16.13
2018-04-08T07:51:49.740Z,16.01
2018-04-08T07:52:49.762Z,15.90
2018-04-08T07:53:49.784Z,15.98
2018-04-08T07:54:49.827Z,16.01
2018-04-08T07:55:49.832Z,16.01
2018-04-08T07:56:49.852Z,16.12
2018-04-08T07:57:49.876Z,16.13
2018-04-08T07:58:49.898Z,16.09
2018-04-08T07:59:49.925Z,16.16
2018-04-08T08:00:49.944Z,16.16
2018-04-08T08:01:49.967Z,16.24
2018-04-08T08:02:49.989Z,16.38
2018-04-08T08:03:50.012Z,16.29
2018-04-08T08:04:50.035Z,16.35
2018-04-08T08:05:50.056Z,16.39
2018-04-08T08:06:50.080Z,16.49
2018-04-08T08:07:50.104Z,16.36
2018-04-08T08:08:50.125Z,16.47
2018-04-08T08:09:50.148Z,16.54
2018-04-08T08:10:50.172Z,16.56
2018-04-08T08:11:50.195Z,16.50
2018-04-08T08:12:50.219Z,16.60
2018-04-08T08:13:50.241Z,16.54
2018-04-08T08:14:50.266Z,16.60
2018-04-08T08:15:50.289Z,16.61
2018-04-08T08:16:50.308Z,16.68
2018-04-08T08:17:50.331Z,16.78
2018-04-08T08:18:50.354Z,16.91
2018-04-08T08:19:50.378Z,16.83
2018-04-08T08:20:50.400Z,16.93
2018-04-08T08:21:50.423Z,16.97
2018-04-08T08:22:50.447Z,17.11
2018-04-08T08:23:50.470Z,17.12
2018-04-08T08:24:50.492Z,17.11
2018-04-08T08:25:50.516Z,17.09
2018-04-08T08:26:50.539Z,17.26
2018-04-08T08:27:50.562Z,17.24
2018-04-08T08:28:50.584Z,17.44
2018-04-08T08:29:50.607Z,17.39
2018-04-08T08:30:50.632Z,17.51
2018-04-08T08:31:50.658Z,17.54
2018-04-08T08:32:50.677Z,17.54
2018-04-08T08:33:50.701Z,17.71
2018-04-08T08:34:50.725Z,17.72
2018-04-08T08:35:50.750Z,17.89
2018-04-08T08:36:50.772Z,17.85
2018-04-08T08:37:50.798Z,17.90
2018-04-08T08:38:50.819Z,18.07
2018-04-08T08:39:50.842Z,18.03
2018-04-08T08:40:50.867Z,18.10
2018-04-08T08:41:50.888Z,18.08
2018-04-08T08:42:50.913Z,18.11
2018-04-08T08:43:50.940Z,18.22
2018-04-08T08:44:50.959Z,18.26
2018-04-08T08:45:50.984Z,18.31
2018-04-08T08:46:51.007Z,18.37
2018-04-08T08:47:51.035Z,18.49
2018-04-08T08:48:51.055Z,18.58
2018-04-08T08:49:51.085Z,18.70
2018-04-08T08:50:51.103Z,18.83
2018-04-08T08:51:51.127Z,18.93
2018-04-08T08:52:51.151Z,19.08
2018-04-08T08:53:51.176Z,19.18
2018-04-08T08:54:51.229Z,19.26
2018-04-08T08:55:51.223Z,19.33
2018-04-08T08:56:51.249Z,19.45
2018-04-08T08:57:51.273Z,19.48
2018-04-08T08:58:51.300Z,19.58
2018-04-08T08:59:51.322Z,19.64
2018-04-08T09:00:51.346Z,19.70
2018-04-08T09:01:51.371Z,19.81
2018-04-08T09:02:51.396Z,19.88
2018-04-08T09:03:51.424Z,19.86
2018-04-08T09:04:51.444Z,20.03
2018-04-08T09:05:51.469Z,20.11
2018-04-08T09:06:51.495Z,20.22
2018-04-08T09:07:51.521Z,20.31
2018-04-08T09:08:51.545Z,20.37
2018-04-08T09:09:51.570Z,20.36
2018-04-08T09:10:51.599Z,20.52
2018-04-08T09:11:51.624Z,20.47
2018-04-08T09:12:51.644Z,20.47
2018-04-08T09:13:51.671Z,20.52
2018-04-08T09:14:51.696Z,20.59
2018-04-08T09:15:51.724Z,20.60
2018-04-08T09:16:51.746Z,20.70
2018-04-08T09:17:51.778Z,20.81
2018-04-08T09:18:51.798Z,20.84
2018-04-08T09:19:51.824Z,20.99
2018-04-08T09:20:51.849Z,21.05
2018-04-08T09:21:51.874Z,21.07
2018-04-08T09:22:51.901Z,21.11
2018-04-08T09:23:51.926Z,21.02
2018-04-08T09:24:51.955Z,21.14
2018-04-08T09:25:51.980Z,21.07
2018-04-08T09:26:52.007Z,21.11
2018-04-08T09:27:52.031Z,21.02
2018-04-08T09:28:52.061Z,20.88
2018-04-08T09:29:52.083Z,20.82
2018-04-08T09:30:52.109Z,20.75
2018-04-08T09:31:52.136Z,20.74
2018-04-08T09:32:52.161Z,20.81
2018-04-08T09:33:52.187Z,20.84
2018-04-08T09:34:52.212Z,20.78
2018-04-08T09:35:52.238Z,20.80
2018-04-08T09:36:52.265Z,20.78
2018-04-08T09:37:52.291Z,20.81
2018-04-08T09:38:52.317Z,20.77
2018-04-08T09:39:52.344Z,20.77
2018-04-08T09:40:52.370Z,20.67
2018-04-08T09:41:52.396Z,20.65
2018-04-08T09:42:52.421Z,20.81
2018-04-08T09:43:52.451Z,20.75
2018-04-08T09:44:52.473Z,20.85
2018-04-08T09:45:52.502Z,20.90
2018-04-08T09:46:52.526Z,20.88
2018-04-08T09:47:52.552Z,20.88
2018-04-08T09:48:52.579Z,20.88
2018-04-08T09:49:52.605Z,20.80
2018-04-08T09:50:52.630Z,20.88
2018-04-08T09:51:52.657Z,20.93
2018-04-08T09:52:52.683Z,21.05
2018-04-08T09:53:52.710Z,21.09
2018-04-08T09:54:52.737Z,21.12
2018-04-08T09:55:52.762Z,21.29
2018-04-08T09:56:52.788Z,21.35
2018-04-08T09:57:52.815Z,21.40
2018-04-08T09:58:52.841Z,21.54
2018-04-08T09:59:52.867Z,21.51
2018-04-08T10:00:52.896Z,21.60
2018-04-08T10:01:52.924Z,21.60
2018-04-08T10:02:52.947Z,21.72
2018-04-08T10:03:52.973Z,21.60
2018-04-08T10:04:53.000Z,21.58
2018-04-08T10:05:53.027Z,21.60
2018-04-08T10:06:53.053Z,21.66
2018-04-08T10:07:53.130Z,21.66
2018-04-08T10:08:53.109Z,21.88
2018-04-08T10:09:53.134Z,22.04
2018-04-08T10:10:53.159Z,21.93
2018-04-08T10:11:53.190Z,22.06
2018-04-08T10:12:53.213Z,22.08
2018-04-08T10:13:53.239Z,22.11
2018-04-08T10:14:53.268Z,22.18
2018-04-08T10:15:53.300Z,22.28
2018-04-08T10:16:53.319Z,22.29
2018-04-08T10:17:53.346Z,22.22
2018-04-08T10:18:53.375Z,22.11
2018-04-08T10:19:53.401Z,22.13
2018-04-08T10:20:53.427Z,22.04
2018-04-08T10:21:53.453Z,22.14
2018-04-08T10:22:53.481Z,22.25
2018-04-08T10:23:53.508Z,22.26
2018-04-08T10:24:53.572Z,22.32
2018-04-08T10:25:53.562Z,22.32
2018-04-08T10:26:53.589Z,22.33
2018-04-08T10:27:53.617Z,22.45
2018-04-08T10:28:53.643Z,22.50
2018-04-08T10:29:53.671Z,22.57
2018-04-08T10:30:53.698Z,22.39
2018-04-08T10:31:53.725Z,22.41
2018-04-08T10:32:53.751Z,22.36
2018-04-08T10:33:53.783Z,22.39
2018-04-08T10:34:53.805Z,22.30
2018-04-08T10:35:53.834Z,22.39
2018-04-08T10:36:53.859Z,22.35
2018-04-08T10:37:53.888Z,22.54
2018-04-08T10:38:53.913Z,22.54
2018-04-08T10:39:53.941Z,22.59
2018-04-08T10:40:53.970Z,22.68
2018-04-08T10:41:53.995Z,22.70
2018-04-08T10:42:54.023Z,22.68
2018-04-08T10:43:54.051Z,22.69
2018-04-08T10:44:54.077Z,22.80
2018-04-08T10:45:54.106Z,22.76
2018-04-08T10:46:54.132Z,22.69
2018-04-08T10:47:54.163Z,22.81
2018-04-08T10:48:54.187Z,22.81
2018-04-08T10:49:54.212Z,22.90
2018-04-08T10:50:54.241Z,22.94
2018-04-08T10:51:54.269Z,23.02
2018-04-08T10:52:54.294Z,23.06
2018-04-08T10:53:54.322Z,23.05
2018-04-08T10:54:54.351Z,22.96
2018-04-08T10:55:54.378Z,22.84
2018-04-08T10:56:54.409Z,22.84
2018-04-08T10:57:54.432Z,22.84
2018-04-08T10:58:54.460Z,22.96
2018-04-08T10:59:54.488Z,23.00
2018-04-08T11:00:54.516Z,23.03
2018-04-08T11:01:54.543Z,23.06
2018-04-08T11:02:54.571Z,23.02
2018-04-08T11:03:54.599Z,23.03
2018-04-08T11:04:54.705Z,23.09
2018-04-08T11:05:54.654Z,23.20
2018-04-08T11:06:54.683Z,23.23
2018-04-08T11:07:54.710Z,23.27
2018-04-08T11:08:54.737Z,23.27
2018-04-08T11:09:54.766Z,23.31
2018-04-08T11:10:54.794Z,23.12
2018-04-08T11:11:54.821Z,23.18
2018-04-08T11:12:54.848Z,23.12
2018-04-08T11:13:54.879Z,23.17
2018-04-08T11:14:54.904Z,23.24
2018-04-08T11:15:54.932Z,23.39
2018-04-08T11:16:55.008Z,23.50
2018-04-08T11:17:54.988Z,23.59
2018-04-08T11:18:55.016Z,23.74
2018-04-08T11:19:55.044Z,23.77
2018-04-08T11:20:55.072Z,23.95
2018-04-08T11:21:55.100Z,24.02
2018-04-08T11:22:55.128Z,23.93
2018-04-08T11:23:55.157Z,23.68
2018-04-08T11:24:55.184Z,23.76
2018-04-08T11:25:55.213Z,23.71
2018-04-08T11:26:55.242Z,23.76
2018-04-08T11:27:55.269Z,23.84
2018-04-08T11:28:55.297Z,23.88
2018-04-08T11:29:55.330Z,23.76
2018-04-08T11:30:55.354Z,23.84
2018-04-08T11:31:55.384Z,23.95
2018-04-08T11:32:55.411Z,23.98
2018-04-08T11:33:55.439Z,24.03
2018-04-08T11:34:55.472Z,24.06
2018-04-08T11:35:55.497Z,24.13
2018-04-08T11:36:55.524Z,24.05
2018-04-08T11:37:55.558Z,24.08
2018-04-08T11:38:55.582Z,24.08
2018-04-08T11:39:55.615Z,24.10
2018-04-08T11:40:55.638Z,24.18
2018-04-08T11:41:55.667Z,24.20
2018-04-08T11:42:55.695Z,24.18
2018-04-08T11:43:55.725Z,24.17
2018-04-08T11:44:55.758Z,24.17
2018-04-08T11:45:55.781Z,24.17
2018-04-08T11:46:55.810Z,24.26
2018-04-08T11:47:55.838Z,24.32
2018-04-08T11:48:55.866Z,24.32
2018-04-08T11:49:55.895Z,24.30
2018-04-08T11:50:55.923Z,24.26
2018-04-08T11:51:55.952Z,24.35
2018-04-08T11:52:55.980Z,24.26
2018-04-08T11:53:56.009Z,24.30
2018-04-08T11:54:56.038Z,24.28
2018-04-08T11:55:56.066Z,24.30
2018-04-08T11:56:56.094Z,24.28
2018-04-08T11:57:56.122Z,24.28
2018-04-08T11:58:56.152Z,24.20
2018-04-08T11:59:56.186Z,24.17
2018-04-08T12:00:56.208Z,24.05
2018-04-08T12:01:56.237Z,24.10
2018-04-08T12:02:56.267Z,24.10
2018-04-08T12:03:56.294Z,23.88
2018-04-08T12:04:56.321Z,23.92
2018-04-08T12:05:56.349Z,23.91
2018-04-08T12:06:56.378Z,23.88
2018-04-08T12:07:56.407Z,23.68
2018-04-08T12:08:56.435Z,23.68
2018-04-08T12:09:56.463Z,23.69
2018-04-08T12:10:56.494Z,23.69
2018-04-08T12:11:56.520Z,23.83
2018-04-08T12:12:56.548Z,23.96
2018-04-08T12:13:56.579Z,24.05
2018-04-08T12:14:56.614Z,24.16
2018-04-08T12:15:56.635Z,24.20
2018-04-08T12:16:56.662Z,24.06
2018-04-08T12:17:56.690Z,24.05
2018-04-08T12:18:56.718Z,23.98
2018-04-08T12:19:56.746Z,23.93
2018-04-08T12:20:56.776Z,23.86
2018-04-08T12:21:56.802Z,23.88
2018-04-08T12:22:56.835Z,23.88
2018-04-08T12:23:56.860Z,23.93
2018-04-08T12:24:56.886Z,24.01
2018-04-08T12:25:56.918Z,23.93
2018-04-08T12:26:56.943Z,23.92
2018-04-08T12:27:56.973Z,23.96
2018-04-08T12:28:56.998Z,24.01
2018-04-08T12:29:57.029Z,24.10
2018-04-08T12:30:57.057Z,24.16
2018-04-08T12:31:57.085Z,24.32
2018-04-08T12:32:57.113Z,24.40
2018-04-08T12:33:57.140Z,24.53
2018-04-08T12:34:57.169Z,24.61
2018-04-08T12:35:57.198Z,24.70
2018-04-08T12:36:57.226Z,24.95
2018-04-08T12:37:57.255Z,24.85
2018-04-08T12:38:57.285Z,24.74
2018-04-08T12:39:57.312Z,24.65
2018-04-08T12:40:57.339Z,24.74
2018-04-08T12:41:57.369Z,24.76
2018-04-08T12:42:57.397Z,24.91
2018-04-08T12:43:57.426Z,25.03
2018-04-08T12:44:57.454Z,24.99
2018-04-08T12:45:57.483Z,25.03
2018-04-08T12:46:57.512Z,25.04
2018-04-08T12:47:57.541Z,25.01
2018-04-08T12:48:57.572Z,24.92
2018-04-08T12:49:57.597Z,24.98
2018-04-08T12:50:57.625Z,25.08
2018-04-08T12:51:57.659Z,25.17
2018-04-08T12:52:57.683Z,25.07